createdAt,value
2022-10-19T00:00:43.666Z,3.27
2022-10-19T00:03:20.694Z,3.20
2022-10-19T00:05:55.101Z,2.93
2022-10-19T00:08:27.625Z,3.37
2022-10-19T00:11:02.185Z,3.10
2022-10-19T00:13:34.410Z,3.00
2022-10-19T00:16:12.857Z,3.13
2022-10-19T00:18:45.523Z,3.40
2022-10-19T00:21:19.721Z,3.10
2022-10-19T00:23:51.746Z,3.33
2022-10-19T00:26:23.822Z,3.20
2022-10-19T00:28:57.319Z,3.40
2022-10-19T00:31:29.386Z,3.50
2022-10-19T00:34:01.531Z,3.70
2022-10-19T00:36:39.459Z,3.57
2022-10-19T00:39:15.301Z,3.93
2022-10-19T00:41:48.442Z,3.40
2022-10-19T00:44:20.235Z,3.80
2022-10-19T00:46:53.442Z,3.80
2022-10-19T00:49:37.672Z,3.80
2022-10-19T00:52:18.114Z,3.60
2022-10-19T00:54:52.799Z,4.20
2022-10-19T00:57:29.750Z,4.00
2022-10-19T01:00:05.179Z,3.87
2022-10-19T01:02:37.516Z,4.00
2022-10-19T01:05:11.408Z,4.60
2022-10-19T01:07:43.984Z,4.20
2022-10-19T01:10:16.056Z,4.03
2022-10-19T01:13:19.275Z,4.30
2022-10-19T01:16:15.332Z,4.60
2022-10-19T01:19:10.438Z,4.10
2022-10-19T01:21:50.224Z,4.40
2022-10-19T01:24:48.494Z,4.20
2022-10-19T01:28:01.691Z,4.13
2022-10-19T01:30:50.647Z,3.80
2022-10-19T01:33:36.923Z,3.70
2022-10-19T01:36:22.441Z,3.53
2022-10-19T01:39:21.040Z,3.90
2022-10-19T01:42:12.574Z,3.70
2022-10-19T01:45:00.651Z,3.60
2022-10-19T01:47:47.555Z,3.73
2022-10-19T01:50:45.925Z,4.00
2022-10-19T01:53:20.821Z,3.80
2022-10-19T01:55:55.837Z,3.70
2022-10-19T01:58:33.691Z,4.50
2022-10-19T02:03:48.223Z,4.43
2022-10-19T02:06:20.954Z,4.40
2022-10-19T02:08:54.595Z,4.30
2022-10-19T02:11:27.120Z,4.33
2022-10-19T02:14:13.407Z,4.07
2022-10-19T02:16:58.913Z,3.90
2022-10-19T02:19:31.201Z,4.07
2022-10-19T02:22:03.787Z,3.50
2022-10-19T02:24:35.789Z,4.03
2022-10-19T02:27:09.353Z,3.67
2022-10-19T02:29:41.662Z,4.07
2022-10-19T02:32:13.979Z,3.87
2022-10-19T02:34:46.383Z,4.17
2022-10-19T02:37:20.974Z,3.80
2022-10-19T02:39:55.464Z,4.00
2022-10-19T02:42:41.322Z,4.00
2022-10-19T02:45:23.771Z,4.20
2022-10-19T02:48:07.212Z,4.23
2022-10-19T02:50:44.027Z,4.00
2022-10-19T02:53:16.713Z,4.27
2022-10-19T02:55:50.042Z,4.40
2022-10-19T02:58:22.228Z,4.30
2022-10-19T03:00:54.937Z,4.03
2022-10-19T03:03:26.796Z,3.90
2022-10-19T03:05:58.642Z,3.67
2022-10-19T03:08:30.524Z,4.17
2022-10-19T03:11:02.684Z,3.80
2022-10-19T03:13:34.683Z,3.70
2022-10-19T03:16:12.712Z,3.67
2022-10-19T03:18:44.672Z,3.47
2022-10-19T03:21:17.947Z,3.93
2022-10-19T03:23:49.862Z,4.13
2022-10-19T03:26:21.888Z,4.10
2022-10-19T03:28:53.788Z,4.30
2022-10-19T03:31:27.154Z,4.03
2022-10-19T03:33:59.052Z,4.33
2022-10-19T03:36:37.484Z,4.07
2022-10-19T03:39:14.355Z,4.43
2022-10-19T03:41:46.586Z,4.40
2022-10-19T03:44:18.528Z,4.33
2022-10-19T03:46:50.421Z,4.50
2022-10-19T03:49:22.385Z,4.47
2022-10-19T03:51:54.265Z,4.77
2022-10-19T03:54:27.464Z,4.50
2022-10-19T03:56:59.589Z,4.60
2022-10-19T03:59:31.560Z,4.33
2022-10-19T04:02:04.109Z,4.40
2022-10-19T04:04:36.141Z,4.23
2022-10-19T04:07:08.013Z,3.83
2022-10-19T04:09:39.983Z,4.10
2022-10-19T04:12:11.976Z,3.67
2022-10-19T04:14:56.872Z,3.83
2022-10-19T04:17:29.607Z,3.40
2022-10-19T04:20:01.558Z,3.60
2022-10-19T04:22:33.574Z,3.43
2022-10-19T04:25:06.529Z,3.67
2022-10-19T04:27:38.476Z,3.60
2022-10-19T04:30:11.107Z,3.77
2022-10-19T04:32:42.977Z,3.33
2022-10-19T04:35:14.904Z,3.83
2022-10-19T04:37:46.810Z,3.63
2022-10-19T04:40:18.694Z,4.53
2022-10-19T04:42:50.583Z,4.53
2022-10-19T04:45:22.460Z,4.60
2022-10-19T04:47:56.633Z,4.20
2022-10-19T04:50:28.580Z,4.67
2022-10-19T04:53:00.506Z,4.83
2022-10-19T04:55:32.467Z,4.70
2022-10-19T04:58:04.368Z,4.87
2022-10-19T05:00:39.229Z,4.80
2022-10-19T05:03:11.166Z,4.60
2022-10-19T05:05:43.074Z,5.37
2022-10-19T05:08:14.970Z,4.90
2022-10-19T05:10:47.779Z,4.77
2022-10-19T05:13:19.779Z,4.47
2022-10-19T05:16:00.785Z,4.13
2022-10-19T05:18:33.862Z,4.83
2022-10-19T05:21:14.173Z,4.60
2022-10-19T05:23:46.377Z,4.47
2022-10-19T05:26:21.059Z,4.50
2022-10-19T05:29:01.579Z,4.50
2022-10-19T05:31:34.876Z,4.57
2022-10-19T05:36:40.937Z,5.13
2022-10-19T05:39:18.037Z,5.40
2022-10-19T05:41:50.325Z,5.43
2022-10-19T05:44:23.823Z,5.63
2022-10-19T05:46:55.810Z,5.47
2022-10-19T05:49:27.908Z,5.43
2022-10-19T05:51:59.844Z,5.00
2022-10-19T05:54:31.801Z,5.17
2022-10-19T05:57:04.067Z,5.87
2022-10-19T05:59:35.977Z,6.47
2022-10-19T06:02:14.644Z,5.27
2022-10-19T06:04:46.537Z,6.00
2022-10-19T06:07:18.585Z,6.40
2022-10-19T06:09:50.484Z,6.23
2022-10-19T06:12:24.953Z,6.03
2022-10-19T06:14:57.123Z,6.13
2022-10-19T06:17:29.556Z,6.80
2022-10-19T06:20:01.482Z,6.10
2022-10-19T06:22:33.383Z,6.10
2022-10-19T06:25:05.908Z,6.23
2022-10-19T06:27:38.068Z,6.10
2022-10-19T06:30:11.063Z,6.40
2022-10-19T06:32:42.956Z,5.77
2022-10-19T06:35:16.142Z,6.70
2022-10-19T06:37:48.168Z,6.53
2022-10-19T06:40:20.122Z,6.47
2022-10-19T06:42:52.336Z,5.93
2022-10-19T06:45:24.512Z,6.50
2022-10-19T06:47:56.474Z,6.67
2022-10-19T06:50:28.369Z,6.07
2022-10-19T06:53:00.296Z,5.87
2022-10-19T06:55:32.252Z,6.50
2022-10-19T06:58:04.579Z,6.17
2022-10-19T07:00:36.533Z,6.20
2022-10-19T07:03:08.489Z,6.13
2022-10-19T07:05:40.427Z,6.43
2022-10-19T07:08:12.318Z,6.07
2022-10-19T07:10:44.237Z,5.90
2022-10-19T07:13:16.304Z,5.70
2022-10-19T07:15:48.654Z,5.87
2022-10-19T07:18:20.536Z,5.80
2022-10-19T07:21:01.930Z,5.93
2022-10-19T07:23:36.252Z,5.83
2022-10-19T07:26:13.073Z,5.43
2022-10-19T07:28:47.819Z,5.40
2022-10-19T07:31:23.669Z,5.87
2022-10-19T07:34:03.641Z,5.10
2022-10-19T07:36:36.933Z,5.53
2022-10-19T07:39:10.436Z,5.40
2022-10-19T07:41:43.496Z,5.10
2022-10-19T07:44:16.017Z,5.53
2022-10-19T07:46:47.937Z,5.23
2022-10-19T07:49:20.717Z,5.00
2022-10-19T07:51:54.244Z,5.00
2022-10-19T07:54:27.433Z,5.00
2022-10-19T07:56:59.349Z,5.20
2022-10-19T07:59:31.239Z,4.80
2022-10-19T08:02:04.861Z,5.43
2022-10-19T08:07:34.250Z,6.20
2022-10-19T08:10:06.755Z,5.00
2022-10-19T08:12:38.685Z,4.77
2022-10-19T08:15:10.730Z,5.00
2022-10-19T08:17:42.742Z,4.90
2022-10-19T08:20:14.664Z,4.73
2022-10-19T08:22:46.881Z,4.73
2022-10-19T08:25:18.993Z,4.77
2022-10-19T08:27:50.866Z,5.03
2022-10-19T08:30:22.721Z,4.43
2022-10-19T08:32:54.655Z,4.60
2022-10-19T08:35:26.603Z,4.47
2022-10-19T08:37:59.139Z,5.93
2022-10-19T08:40:31.898Z,5.00
2022-10-19T08:43:24.760Z,4.73
2022-10-19T08:46:33.676Z,4.87
2022-10-19T08:49:09.469Z,5.50
2022-10-19T08:51:46.880Z,4.87
2022-10-19T08:54:19.658Z,4.80
2022-10-19T08:57:37.316Z,4.17
2022-10-19T09:00:44.061Z,4.57
2022-10-19T09:03:55.383Z,5.00
2022-10-19T09:07:03.381Z,4.63
2022-10-19T09:09:42.918Z,4.20
2022-10-19T09:12:24.882Z,4.33
2022-10-19T09:15:01.207Z,4.93
2022-10-19T09:17:33.718Z,4.90
2022-10-19T09:20:34.716Z,4.90
2022-10-19T09:23:41.860Z,4.77
2022-10-19T09:26:22.039Z,4.60
2022-10-19T09:29:27.945Z,4.83
2022-10-19T09:32:05.438Z,4.83
2022-10-19T09:34:47.989Z,5.13
2022-10-19T09:37:26.386Z,4.43
2022-10-19T09:39:58.873Z,4.67
2022-10-19T09:42:34.186Z,4.57
2022-10-19T09:45:26.010Z,4.57
2022-10-19T09:48:08.578Z,4.40
2022-10-19T09:50:59.969Z,3.50
2022-10-19T09:53:32.034Z,3.27
2022-10-19T09:56:08.075Z,3.70
2022-10-19T09:58:49.731Z,3.20
2022-10-19T10:01:43.829Z,3.20
2022-10-19T10:04:18.431Z,3.00
2022-10-19T10:06:50.610Z,3.43
2022-10-19T10:09:28.413Z,3.10
2022-10-19T10:12:00.650Z,3.03
2022-10-19T10:14:36.915Z,3.17
2022-10-19T10:17:21.887Z,3.10
2022-10-19T10:19:59.829Z,3.10
2022-10-19T10:22:36.691Z,3.47
2022-10-19T10:25:18.645Z,3.23
2022-10-19T10:28:16.900Z,3.40
2022-10-19T10:30:55.798Z,3.10
2022-10-19T10:33:44.123Z,3.30
2022-10-19T10:36:18.202Z,3.80
2022-10-19T10:41:44.669Z,3.47
2022-10-19T10:44:36.247Z,3.60
2022-10-19T10:47:16.744Z,3.77
2022-10-19T10:50:06.839Z,3.90
2022-10-19T10:52:58.968Z,3.70
2022-10-19T10:55:32.861Z,3.80
2022-10-19T10:58:28.213Z,3.90
2022-10-19T11:01:14.054Z,4.00
2022-10-19T11:03:59.745Z,3.87
2022-10-19T11:06:34.791Z,4.07
2022-10-19T11:09:29.414Z,4.15
2022-10-19T11:12:10.457Z,4.10
2022-10-19T11:15:02.904Z,4.10
2022-10-19T11:17:44.045Z,4.20
2022-10-19T11:20:16.871Z,4.17
2022-10-19T11:23:23.235Z,3.93
2022-10-19T11:26:30.545Z,3.97
2022-10-19T11:29:36.495Z,5.00
2022-10-19T11:32:58.833Z,4.60
2022-10-19T11:35:49.640Z,4.57
2022-10-19T11:38:53.829Z,4.50
2022-10-19T11:42:14.482Z,4.40
2022-10-19T11:45:19.431Z,4.57
2022-10-19T11:48:37.687Z,4.50
2022-10-19T11:51:40.013Z,5.17
2022-10-19T11:54:26.745Z,4.60
2022-10-19T11:57:13.478Z,4.80
2022-10-19T12:00:14.541Z,4.43
2022-10-19T12:03:28.254Z,5.20
2022-10-19T12:06:15.081Z,4.80
2022-10-19T12:09:19.920Z,4.93
2022-10-19T12:12:19.618Z,4.30
2022-10-19T12:15:23.841Z,4.50
2022-10-19T12:18:05.011Z,4.80
2022-10-19T12:20:54.975Z,4.07
2022-10-19T12:23:39.979Z,4.10
2022-10-19T12:29:12.319Z,4.20
2022-10-19T12:31:46.321Z,3.50
2022-10-19T12:34:38.823Z,3.90
2022-10-19T12:37:35.114Z,3.57
2022-10-19T12:40:33.700Z,3.30
2022-10-19T12:43:20.010Z,3.40
2022-10-19T12:46:26.973Z,3.53
2022-10-19T12:49:27.096Z,3.27
2022-10-19T12:52:01.200Z,3.30
2022-10-19T12:54:38.060Z,3.33
2022-10-19T12:57:40.688Z,3.60
2022-10-19T13:00:25.217Z,3.43
2022-10-19T13:03:04.863Z,3.00
2022-10-19T13:05:37.170Z,3.20
2022-10-19T13:08:12.327Z,3.23
2022-10-19T13:11:14.542Z,3.33
2022-10-19T13:14:43.883Z,3.47
2022-10-19T13:17:51.081Z,2.77
2022-10-19T13:20:24.928Z,3.40
2022-10-19T13:22:59.815Z,3.40
2022-10-19T13:25:42.101Z,3.00
2022-10-19T13:28:15.095Z,3.30
2022-10-19T13:30:46.999Z,3.03
2022-10-19T13:33:34.867Z,3.40
2022-10-19T13:36:11.738Z,3.13
2022-10-19T13:38:50.633Z,2.80
2022-10-19T13:41:45.762Z,3.20
2022-10-19T13:44:26.184Z,2.93
2022-10-19T13:47:25.601Z,3.40
2022-10-19T13:50:14.499Z,3.10
2022-10-19T13:53:19.403Z,3.20
2022-10-19T13:56:20.539Z,3.13
2022-10-19T13:59:32.102Z,3.17
2022-10-19T14:02:53.621Z,3.40
2022-10-19T14:05:48.037Z,3.40
2022-10-19T14:09:12.899Z,3.20
2022-10-19T14:11:51.366Z,3.33
2022-10-19T14:14:28.633Z,3.50
2022-10-19T14:17:04.454Z,3.40
2022-10-19T14:19:47.511Z,3.40
2022-10-19T14:22:33.417Z,3.57
2022-10-19T14:25:13.219Z,3.20
2022-10-19T14:27:48.478Z,3.40
2022-10-19T14:30:26.259Z,3.17
2022-10-19T14:33:02.683Z,3.47
2022-10-19T14:35:39.752Z,3.10
2022-10-19T14:38:26.802Z,3.20
2022-10-19T14:40:58.818Z,3.10
2022-10-19T14:43:34.264Z,2.63
2022-10-19T14:46:11.964Z,3.47
2022-10-19T14:48:50.254Z,3.30
2022-10-19T14:51:30.904Z,3.17
2022-10-19T14:54:05.211Z,2.93
2022-10-19T14:57:09.921Z,2.90
2022-10-19T14:59:50.278Z,2.80
2022-10-19T15:02:39.836Z,2.63
2022-10-19T15:05:25.668Z,3.30
2022-10-19T15:07:57.886Z,2.73
2022-10-19T15:10:43.422Z,3.10
2022-10-19T15:13:36.910Z,2.63
2022-10-19T15:16:44.590Z,2.70
2022-10-19T15:19:30.063Z,2.67
2022-10-19T15:22:22.094Z,2.67
2022-10-19T15:25:23.091Z,2.90
2022-10-19T15:27:55.278Z,2.67
2022-10-19T15:30:32.649Z,2.80
2022-10-19T15:33:04.555Z,2.80
2022-10-19T15:35:40.413Z,3.17
2022-10-19T15:38:25.918Z,2.70
2022-10-19T15:41:01.181Z,2.90
2022-10-19T15:43:36.598Z,3.03
2022-10-19T15:46:52.457Z,3.00
2022-10-19T15:49:42.779Z,2.80
2022-10-19T15:52:23.852Z,2.77
2022-10-19T15:54:58.509Z,2.70
2022-10-19T15:57:39.281Z,2.90
2022-10-19T16:00:16.518Z,2.70
2022-10-19T16:02:48.396Z,2.60
2022-10-19T16:05:20.470Z,2.97
2022-10-19T16:07:52.402Z,2.80
2022-10-19T16:10:27.407Z,2.90
2022-10-19T16:12:59.379Z,2.90
2022-10-19T16:15:33.796Z,2.60
2022-10-19T16:18:05.732Z,2.67
2022-10-19T16:20:38.776Z,2.73
2022-10-19T16:23:12.719Z,2.40
2022-10-19T16:25:44.650Z,2.90
2022-10-19T16:28:17.525Z,2.80
2022-10-19T16:30:54.729Z,2.80
2022-10-19T16:33:26.598Z,2.80
2022-10-19T16:35:58.488Z,2.40
2022-10-19T16:38:30.376Z,2.70
2022-10-19T16:41:05.590Z,3.03
2022-10-19T16:43:37.925Z,2.93
2022-10-19T16:46:10.173Z,2.50
2022-10-19T16:48:42.159Z,2.83
2022-10-19T16:51:28.406Z,3.20
2022-10-19T16:54:00.992Z,3.17
2022-10-19T16:56:34.558Z,2.90
2022-10-19T16:59:06.813Z,2.77
2022-10-19T17:01:38.852Z,2.93
2022-10-19T17:04:17.201Z,3.10
2022-10-19T17:06:49.283Z,3.20
2022-10-19T17:09:40.697Z,3.13
2022-10-19T17:12:13.849Z,3.00
2022-10-19T17:14:45.801Z,2.90
2022-10-19T17:17:17.758Z,3.47
2022-10-19T17:19:49.745Z,3.50
2022-10-19T17:22:21.608Z,3.63
2022-10-19T17:24:55.455Z,3.13
2022-10-19T17:30:04.539Z,3.40
2022-10-19T17:32:36.738Z,3.50
2022-10-19T17:35:09.026Z,3.77
2022-10-19T17:37:40.934Z,3.37
2022-10-19T17:40:13.098Z,3.90
2022-10-19T17:42:45.039Z,3.70
2022-10-19T17:45:17.185Z,4.00
2022-10-19T17:47:49.093Z,3.67
2022-10-19T17:50:21.033Z,4.57
2022-10-19T17:52:52.959Z,4.03
2022-10-19T17:55:26.933Z,3.87
2022-10-19T17:57:59.393Z,4.23
2022-10-19T18:00:31.598Z,4.27
2022-10-19T18:03:03.678Z,3.60
2022-10-19T18:05:35.926Z,4.13
2022-10-19T18:08:07.926Z,3.77
2022-10-19T18:10:39.805Z,4.13
2022-10-19T18:13:11.707Z,4.70
2022-10-19T18:15:43.615Z,4.33
2022-10-19T18:18:15.656Z,4.20
2022-10-19T18:20:47.547Z,4.33
2022-10-19T18:23:19.451Z,3.73
2022-10-19T18:25:54.192Z,4.00
2022-10-19T18:28:26.331Z,3.93
2022-10-19T18:31:14.253Z,3.90
2022-10-19T18:33:48.768Z,4.23
2022-10-19T18:36:21.424Z,3.97
2022-10-19T18:38:56.897Z,4.20
2022-10-19T18:41:29.821Z,4.23
2022-10-19T18:44:05.820Z,4.03
2022-10-19T18:46:38.234Z,4.07
2022-10-19T18:49:12.744Z,4.20
2022-10-19T18:51:50.662Z,4.27
2022-10-19T18:54:28.057Z,3.93
2022-10-19T18:57:00.069Z,4.07
2022-10-19T18:59:32.444Z,4.50
2022-10-19T19:02:05.875Z,3.90
2022-10-19T19:04:38.163Z,3.70
2022-10-19T19:07:10.217Z,4.40
2022-10-19T19:09:43.777Z,4.47
2022-10-19T19:12:16.032Z,4.30
2022-10-19T19:14:48.022Z,4.00
2022-10-19T19:17:19.917Z,4.00
2022-10-19T19:19:51.810Z,4.30
2022-10-19T19:22:26.071Z,3.97
2022-10-19T19:24:58.092Z,4.50
2022-10-19T19:27:31.950Z,3.70
2022-10-19T19:30:04.881Z,4.20
2022-10-19T19:32:37.069Z,3.83
2022-10-19T19:35:09.477Z,3.90
2022-10-19T19:37:41.325Z,3.73
2022-10-19T19:40:13.303Z,4.20
2022-10-19T19:42:45.267Z,3.63
2022-10-19T19:45:17.395Z,3.77
2022-10-19T19:47:49.273Z,3.70
2022-10-19T19:50:21.197Z,3.93
2022-10-19T19:52:53.171Z,3.97
2022-10-19T19:55:25.731Z,4.17
2022-10-19T19:57:57.593Z,4.00
2022-10-19T20:00:29.852Z,3.97
2022-10-19T20:03:01.754Z,4.37
2022-10-19T20:05:33.757Z,3.80
2022-10-19T20:08:06.370Z,3.70
2022-10-19T20:10:41.067Z,3.83
2022-10-19T20:13:12.929Z,3.90
2022-10-19T20:15:44.782Z,4.40
2022-10-19T20:18:16.697Z,3.80
2022-10-19T20:20:49.654Z,4.17
2022-10-19T20:23:21.539Z,4.00
2022-10-19T20:25:53.727Z,4.00
2022-10-19T20:28:27.412Z,4.20
2022-10-19T20:31:06.740Z,4.30
2022-10-19T20:33:41.156Z,4.40
2022-10-19T20:36:21.030Z,4.23
2022-10-19T20:38:56.978Z,4.00
2022-10-19T20:41:29.165Z,3.93
2022-10-19T20:44:01.246Z,4.30
2022-10-19T20:46:33.228Z,4.40
2022-10-19T20:49:05.447Z,4.33
2022-10-19T20:51:38.737Z,4.60
2022-10-19T20:54:12.698Z,4.30
2022-10-19T20:56:44.626Z,4.13
2022-10-19T20:59:20.832Z,4.33
2022-10-19T21:01:57.106Z,4.20
2022-10-19T21:04:29.217Z,4.30
2022-10-19T21:07:01.195Z,4.63
2022-10-19T21:09:33.281Z,4.50
2022-10-19T21:12:05.253Z,4.50
2022-10-19T21:14:37.335Z,4.27
2022-10-19T21:17:09.194Z,4.70
2022-10-19T21:19:41.158Z,4.50
2022-10-19T21:22:14.115Z,4.93
2022-10-19T21:24:45.978Z,4.80
2022-10-19T21:27:17.876Z,5.37
2022-10-19T21:29:49.718Z,5.00
2022-10-19T21:32:21.908Z,5.10
2022-10-19T21:34:53.926Z,4.63
2022-10-19T21:37:25.815Z,5.20
2022-10-19T21:39:57.732Z,4.93
2022-10-19T21:42:29.583Z,4.57
2022-10-19T21:45:18.215Z,5.30
2022-10-19T21:47:53.438Z,5.10
2022-10-19T21:50:25.348Z,4.90
2022-10-19T21:52:57.248Z,5.60
2022-10-19T21:55:34.342Z,5.23
2022-10-19T21:58:06.248Z,5.17
2022-10-19T22:00:38.332Z,5.30
2022-10-19T22:03:11.103Z,5.50
2022-10-19T22:05:51.633Z,5.33
2022-10-19T22:08:23.535Z,5.70
2022-10-19T22:10:55.413Z,5.57
2022-10-19T22:13:27.296Z,5.40
2022-10-19T22:16:15.517Z,5.80
2022-10-19T22:18:48.599Z,5.67
2022-10-19T22:21:27.990Z,5.53
2022-10-19T22:24:04.558Z,5.67
2022-10-19T22:26:45.543Z,5.73
2022-10-19T22:29:18.079Z,5.50
2022-10-19T22:31:49.963Z,5.87
2022-10-19T22:34:21.932Z,5.70
2022-10-19T22:36:53.895Z,5.83
2022-10-19T22:39:27.879Z,5.23
2022-10-19T22:43:15.404Z,5.60
2022-10-19T22:45:48.928Z,6.00
2022-10-19T22:48:21.045Z,6.23
2022-10-19T22:50:54.825Z,5.67
2022-10-19T22:53:27.340Z,6.10
2022-10-19T22:55:59.236Z,5.70
2022-10-19T22:58:31.163Z,5.73
2022-10-19T23:01:08.570Z,5.60
2022-10-19T23:03:40.996Z,5.83
2022-10-19T23:06:15.602Z,5.90
2022-10-19T23:08:48.238Z,5.80
2022-10-19T23:11:21.374Z,6.53
2022-10-19T23:13:53.591Z,5.83
2022-10-19T23:16:25.575Z,6.67
2022-10-19T23:18:57.534Z,5.93
2022-10-19T23:21:29.501Z,6.10
2022-10-19T23:24:01.492Z,6.83
2022-10-19T23:26:33.419Z,6.40
2022-10-19T23:29:05.334Z,6.80
2022-10-19T23:31:38.198Z,6.63
2022-10-19T23:34:10.175Z,6.87
2022-10-19T23:36:42.090Z,7.90
2022-10-19T23:39:14.188Z,6.60
2022-10-19T23:41:46.043Z,7.43
2022-10-19T23:44:17.946Z,7.20
2022-10-19T23:46:50.382Z,7.00
2022-10-19T23:49:22.304Z,7.00
2022-10-19T23:51:54.251Z,7.50
2022-10-19T23:54:26.308Z,7.57
2022-10-19T23:56:58.310Z,7.10
2022-10-19T23:59:30.368Z,8.07
